CBG9 weather

Courtenay Airpark Seaplane Base
British Columbia, Canada

Public forecast

Using degrees Celsius for public forecast. Weather courtesy of forecast.io.

Closest aviation weather report (METAR) to Courtenay Airpark Seaplane Base

Closest report is Comox Airport, 4.1 nm (7.5 km) ENE. Retrieved 2019/10/23 20:00 UTC (38 minutes ago):

CYQQ 232000Z 07002KT 20SM FEW009 FEW012 BKN160 10/07 A3055 RMK SF1SC2AS5 SLP346

Closest aviation forecast (TAF) to Courtenay Airpark Seaplane Base

Closest forecast is Comox Airport, 4.1 nm (7.5 km) ENE. Retrieved 2019/10/23 18:42 UTC (2 hours ago):

TAF CYQQ 231739Z 2318/2418 VRB03KT P6SM FEW030 OVC250 FM231900 VRB03KT P6SM BKN100 OVC220 FM240600 VRB03KT P6SM OVC060 FM241500 VRB03KT P6SM SCT008 OVC040 RMK NXT FCST BY 240000Z